createdAt,value
2023-05-05T00:02:01.078Z,5.77
2023-05-05T00:04:29.048Z,6.47
2023-05-05T00:06:57.273Z,6.13
2023-05-05T00:09:26.536Z,6.40
2023-05-05T00:11:54.567Z,7.27
2023-05-05T00:14:22.509Z,7.33
2023-05-05T00:16:50.393Z,7.53
2023-05-05T00:19:18.433Z,6.50
2023-05-05T00:21:46.314Z,6.97
2023-05-05T00:24:14.196Z,7.60
2023-05-05T00:26:43.468Z,6.90
2023-05-05T00:29:11.360Z,6.27
2023-05-05T00:31:39.323Z,8.93
2023-05-05T00:34:07.473Z,6.17
2023-05-05T00:36:35.323Z,9.60
2023-05-05T00:39:03.197Z,5.70
2023-05-05T00:41:31.583Z,5.50
2023-05-05T00:44:01.017Z,5.47
2023-05-05T00:46:31.754Z,5.63
2023-05-05T00:48:59.929Z,5.23
2023-05-05T00:51:29.341Z,5.37
2023-05-05T00:53:57.440Z,5.80
2023-05-05T00:56:27.440Z,4.53
2023-05-05T00:58:55.538Z,6.47
2023-05-05T01:01:24.808Z,5.67
2023-05-05T01:03:52.893Z,6.93
2023-05-05T01:06:39.102Z,6.40
2023-05-05T01:09:19.509Z,6.83
2023-05-05T01:11:52.751Z,7.27
2023-05-05T01:14:27.508Z,6.60
2023-05-05T01:17:00.368Z,6.13
2023-05-05T01:19:54.485Z,6.60
2023-05-05T01:22:25.919Z,6.57
2023-05-05T01:25:38.334Z,6.27
2023-05-05T01:28:24.993Z,6.90
2023-05-05T01:31:10.780Z,5.73
2023-05-05T01:33:46.996Z,6.10
2023-05-05T01:36:22.893Z,6.23
2023-05-05T01:38:56.478Z,5.70
2023-05-05T01:41:29.438Z,6.10
2023-05-05T01:44:00.890Z,6.07
2023-05-05T01:46:29.474Z,6.10
2023-05-05T01:49:00.285Z,7.40
2023-05-05T01:51:29.112Z,6.20
2023-05-05T01:54:01.192Z,7.57
2023-05-05T01:56:31.887Z,7.23
2023-05-05T01:59:01.823Z,6.90
2023-05-05T02:01:31.475Z,7.17
2023-05-05T02:04:04.324Z,6.60
2023-05-05T02:06:33.731Z,6.13
2023-05-05T02:09:03.677Z,6.63
2023-05-05T02:11:32.093Z,6.40
2023-05-05T02:14:01.497Z,5.77
2023-05-05T02:16:31.188Z,6.70
2023-05-05T02:19:05.056Z,5.83
2023-05-05T02:21:33.808Z,5.53
2023-05-05T02:24:02.304Z,5.77
2023-05-05T02:26:32.053Z,6.07
2023-05-05T02:29:07.353Z,7.07
2023-05-05T02:31:39.456Z,6.30
2023-05-05T02:34:10.100Z,6.57
2023-05-05T02:36:40.817Z,6.30
2023-05-05T02:39:14.845Z,6.63
2023-05-05T02:41:46.554Z,6.93
2023-05-05T02:44:16.715Z,9.13
2023-05-05T02:46:45.210Z,7.17
2023-05-05T02:49:14.485Z,6.90
2023-05-05T02:51:42.354Z,7.10
2023-05-05T02:54:10.273Z,8.00
2023-05-05T02:56:42.133Z,7.10
2023-05-05T02:59:17.410Z,7.37
2023-05-05T03:01:57.937Z,7.70
2023-05-05T03:04:32.740Z,7.77
2023-05-05T03:07:09.937Z,6.63
2023-05-05T03:09:41.445Z,7.43
2023-05-05T03:12:11.634Z,8.10
2023-05-05T03:14:42.257Z,7.83
2023-05-05T03:17:12.459Z,7.07
2023-05-05T03:19:43.441Z,6.63
2023-05-05T03:22:11.689Z,6.80
2023-05-05T03:24:39.758Z,7.13
2023-05-05T03:27:07.699Z,7.83
2023-05-05T03:29:35.628Z,6.87
2023-05-05T03:32:03.541Z,6.17
2023-05-05T03:34:31.499Z,6.03
2023-05-05T03:37:00.945Z,7.27
2023-05-05T03:39:28.836Z,7.40
2023-05-05T03:41:56.694Z,6.93
2023-05-05T03:44:24.676Z,6.93
2023-05-05T03:46:52.568Z,6.30
2023-05-05T03:49:20.509Z,6.47
2023-05-05T03:51:48.461Z,5.90
2023-05-05T03:54:17.761Z,6.13
2023-05-05T03:56:45.682Z,5.93
2023-05-05T03:59:13.549Z,7.93
2023-05-05T04:01:41.596Z,6.10
2023-05-05T04:04:09.592Z,6.70
2023-05-05T04:06:37.507Z,6.90
2023-05-05T04:09:05.895Z,7.00
2023-05-05T04:11:35.201Z,7.13
2023-05-05T04:14:03.055Z,7.90
2023-05-05T04:16:31.142Z,7.07
2023-05-05T04:18:59.201Z,8.07
2023-05-05T04:21:27.080Z,7.23
2023-05-05T04:23:54.949Z,7.77
2023-05-05T04:26:22.814Z,8.17
2023-05-05T04:28:52.080Z,8.00
2023-05-05T04:31:20.134Z,9.13
2023-05-05T04:33:48.049Z,7.40
2023-05-05T04:36:15.913Z,5.90
2023-05-05T04:38:43.859Z,5.97
2023-05-05T04:41:11.913Z,8.13
2023-05-05T04:43:39.757Z,9.50
2023-05-05T04:46:09.108Z,7.60
2023-05-05T04:48:37.995Z,7.63
2023-05-05T04:51:06.749Z,8.07
2023-05-05T04:53:34.733Z,8.53
2023-05-05T04:56:03.418Z,7.90
2023-05-05T04:58:31.320Z,7.40
2023-05-05T05:00:59.489Z,10.40
2023-05-05T05:03:28.800Z,11.77
2023-05-05T05:05:56.788Z,8.07
2023-05-05T05:08:24.644Z,10.40
2023-05-05T05:10:52.499Z,9.80
2023-05-05T05:13:20.661Z,10.93
2023-05-05T05:15:48.657Z,9.47
2023-05-05T05:18:16.796Z,9.13
2023-05-05T05:20:46.460Z,9.90
2023-05-05T05:23:14.304Z,9.23
2023-05-05T05:25:42.141Z,8.77
2023-05-05T05:28:10.893Z,9.60
2023-05-05T05:30:38.995Z,8.23
2023-05-05T05:33:07.329Z,9.37
2023-05-05T05:35:35.237Z,7.80
2023-05-05T05:38:04.448Z,7.47
2023-05-05T05:40:32.591Z,8.87
2023-05-05T05:43:00.618Z,8.73
2023-05-05T05:45:28.471Z,7.83
2023-05-05T05:47:56.641Z,7.10
2023-05-05T05:50:27.234Z,7.10
2023-05-05T05:52:55.140Z,7.57
2023-05-05T05:55:24.383Z,7.33
2023-05-05T05:57:52.253Z,9.03
2023-05-05T06:00:20.278Z,6.23
2023-05-05T06:02:48.348Z,6.77
2023-05-05T06:05:16.557Z,7.73
2023-05-05T06:07:44.380Z,7.17
2023-05-05T06:10:26.642Z,7.07
2023-05-05T06:12:57.477Z,9.23
2023-05-05T06:15:25.885Z,7.50
2023-05-05T06:17:53.889Z,7.73
2023-05-05T06:20:21.955Z,7.07
2023-05-05T06:22:49.812Z,7.43
2023-05-05T06:25:17.786Z,6.97
2023-05-05T06:27:46.113Z,7.83
2023-05-05T06:30:15.824Z,8.33
2023-05-05T06:32:43.710Z,6.90
2023-05-05T06:35:11.712Z,6.73
2023-05-05T06:37:39.606Z,6.30
2023-05-05T06:40:09.508Z,6.30
2023-05-05T06:42:37.582Z,6.20
2023-05-05T06:45:06.088Z,6.83
2023-05-05T06:47:35.369Z,8.23
2023-05-05T06:50:03.863Z,6.43
2023-05-05T06:52:31.726Z,6.83
2023-05-05T06:54:59.719Z,6.27
2023-05-05T06:57:27.571Z,6.67
2023-05-05T06:59:55.544Z,6.47
2023-05-05T07:02:25.275Z,6.70
2023-05-05T07:04:56.411Z,8.10
2023-05-05T07:07:24.383Z,6.60
2023-05-05T07:09:52.184Z,6.50
2023-05-05T07:12:20.066Z,8.23
2023-05-05T07:14:47.984Z,7.37
2023-05-05T07:17:16.053Z,6.20
2023-05-05T07:19:44.306Z,6.40
2023-05-05T07:22:13.597Z,6.73
2023-05-05T07:24:41.581Z,5.57
2023-05-05T07:27:09.567Z,5.50
2023-05-05T07:29:37.443Z,5.18
2023-05-05T07:32:05.616Z,6.85
2023-05-05T07:34:34.652Z,5.82
2023-05-05T07:37:03.509Z,5.35
2023-05-05T07:39:32.780Z,6.70
2023-05-05T07:42:01.573Z,5.85
2023-05-05T07:44:29.457Z,4.95
2023-05-05T07:46:57.327Z,5.38
2023-05-05T07:49:25.296Z,5.13
2023-05-05T07:51:53.143Z,6.10
2023-05-05T07:54:21.043Z,5.22
2023-05-05T07:56:50.455Z,5.45
2023-05-05T07:59:18.383Z,5.15
2023-05-05T08:01:46.258Z,5.25
2023-05-05T08:04:14.212Z,4.55
2023-05-05T08:06:42.138Z,4.85
2023-05-05T08:09:10.197Z,5.22
2023-05-05T08:11:38.063Z,5.15
2023-05-05T08:14:08.829Z,5.63
2023-05-05T08:16:36.757Z,6.30
2023-05-05T08:19:07.928Z,5.90
2023-05-05T08:21:42.699Z,4.65
2023-05-05T08:24:10.538Z,6.32
2023-05-05T08:26:38.429Z,6.25
2023-05-05T08:29:07.710Z,5.82
2023-05-05T08:31:38.002Z,5.53
2023-05-05T08:34:06.455Z,5.47
2023-05-05T08:36:34.748Z,5.05
2023-05-05T08:39:02.698Z,5.00
2023-05-05T08:41:30.658Z,4.32
2023-05-05T08:43:58.558Z,4.75
2023-05-05T08:46:29.369Z,3.90
2023-05-05T08:48:58.831Z,4.15
2023-05-05T08:51:31.122Z,4.60
2023-05-05T08:54:04.106Z,5.07
2023-05-05T08:56:39.766Z,5.10
2023-05-05T08:59:09.595Z,4.00
2023-05-05T09:01:39.221Z,4.65
2023-05-05T09:04:09.922Z,6.20
2023-05-05T09:06:38.264Z,5.32
2023-05-05T09:09:06.218Z,4.85
2023-05-05T09:11:36.206Z,4.57
2023-05-05T09:14:04.087Z,5.40
2023-05-05T09:16:32.027Z,6.07
2023-05-05T09:19:05.612Z,4.85
2023-05-05T09:21:33.571Z,6.20
2023-05-05T09:24:09.982Z,5.07
2023-05-05T09:26:39.317Z,4.80
2023-05-05T09:29:07.325Z,7.45
2023-05-05T09:31:37.054Z,7.18
2023-05-05T09:34:17.584Z,5.15
2023-05-05T09:36:47.893Z,5.10
2023-05-05T09:39:17.781Z,5.65
2023-05-05T09:41:46.883Z,5.20
2023-05-05T09:44:16.997Z,5.07
2023-05-05T09:46:52.614Z,5.28
2023-05-05T09:49:25.518Z,6.68
2023-05-05T09:51:54.295Z,6.00
2023-05-05T09:54:26.300Z,6.30
2023-05-05T09:56:54.617Z,6.68
2023-05-05T09:59:23.248Z,6.40
2023-05-05T10:01:51.962Z,7.40
2023-05-05T10:04:29.177Z,7.18
2023-05-05T10:06:57.685Z,5.47
2023-05-05T10:09:25.828Z,5.80
2023-05-05T10:11:54.038Z,6.13
2023-05-05T10:14:22.094Z,6.25
2023-05-05T10:16:51.718Z,6.22
2023-05-05T10:19:20.709Z,7.18
2023-05-05T10:21:52.121Z,6.10
2023-05-05T10:24:29.142Z,6.25
2023-05-05T10:26:59.470Z,6.00
2023-05-05T10:29:40.568Z,6.20
2023-05-05T10:34:54.371Z,6.18
2023-05-05T10:37:24.249Z,6.47
2023-05-05T10:39:53.922Z,6.20
2023-05-05T10:42:23.665Z,6.65
2023-05-05T10:44:51.741Z,7.10
2023-05-05T10:47:21.376Z,7.97
2023-05-05T10:49:55.378Z,6.10
2023-05-05T10:52:34.107Z,6.95
2023-05-05T10:55:10.671Z,6.47
2023-05-05T10:57:42.063Z,6.55
2023-05-05T11:00:11.422Z,6.55
2023-05-05T11:02:41.348Z,6.80
2023-05-05T11:05:17.855Z,7.75
2023-05-05T11:07:49.259Z,6.60
2023-05-05T11:10:19.761Z,6.40
2023-05-05T11:13:19.996Z,8.85
2023-05-05T11:15:48.595Z,6.80
2023-05-05T11:18:36.900Z,6.78
2023-05-05T11:21:15.692Z,6.57
2023-05-05T11:23:47.329Z,7.22
2023-05-05T11:26:16.697Z,6.85
2023-05-05T11:29:03.349Z,6.00
2023-05-05T11:31:32.085Z,5.97
2023-05-05T11:34:28.818Z,7.13
2023-05-05T11:36:59.452Z,6.60
2023-05-05T11:39:37.618Z,7.18
2023-05-05T11:42:19.900Z,6.70
2023-05-05T11:44:47.816Z,8.05
2023-05-05T11:47:35.195Z,6.20
2023-05-05T11:50:21.761Z,6.47
2023-05-05T11:52:49.787Z,6.82
2023-05-05T11:55:25.237Z,6.20
2023-05-05T11:57:53.460Z,6.63
2023-05-05T12:00:21.763Z,6.35
2023-05-05T12:02:57.909Z,6.07
2023-05-05T12:05:26.254Z,9.85
2023-05-05T12:07:58.770Z,6.10
2023-05-05T12:10:28.717Z,5.47
2023-05-05T12:12:56.649Z,5.80
2023-05-05T12:15:33.913Z,6.72
2023-05-05T12:18:03.417Z,6.53
2023-05-05T12:20:33.312Z,6.22
2023-05-05T12:23:04.818Z,5.88
2023-05-05T12:25:39.057Z,6.32
2023-05-05T12:28:08.219Z,6.22
2023-05-05T12:30:36.517Z,5.43
2023-05-05T12:33:05.563Z,5.32
2023-05-05T12:35:33.895Z,4.78
2023-05-05T12:38:01.823Z,5.32
2023-05-05T12:40:49.075Z,5.85
2023-05-05T12:43:27.821Z,5.15
2023-05-05T12:46:06.928Z,5.63
2023-05-05T12:48:35.804Z,5.68
2023-05-05T12:51:18.337Z,5.32
2023-05-05T12:53:46.974Z,5.55
2023-05-05T12:56:41.862Z,5.22
2023-05-05T12:59:10.767Z,5.20
2023-05-05T13:01:50.017Z,5.60
2023-05-05T13:04:18.710Z,4.85
2023-05-05T13:06:48.733Z,5.68
2023-05-05T13:09:26.533Z,5.03
2023-05-05T13:11:56.477Z,6.60
2023-05-05T13:14:24.409Z,5.38
2023-05-05T13:16:52.306Z,5.07
2023-05-05T13:19:20.123Z,6.43
2023-05-05T13:21:48.183Z,5.85
2023-05-05T13:24:23.445Z,5.40
2023-05-05T13:26:56.569Z,5.43
2023-05-05T13:29:28.373Z,6.00
2023-05-05T13:31:58.541Z,5.80
2023-05-05T13:34:26.723Z,4.97
2023-05-05T13:36:54.559Z,6.07
2023-05-05T13:39:22.443Z,5.15
2023-05-05T13:41:50.537Z,4.97
2023-05-05T13:44:19.862Z,5.05
2023-05-05T13:46:47.856Z,7.10
2023-05-05T13:49:15.739Z,5.60
2023-05-05T13:51:43.619Z,5.30
2023-05-05T13:54:11.483Z,5.38
2023-05-05T13:56:39.406Z,5.57
2023-05-05T13:59:07.314Z,7.25
2023-05-05T14:01:36.620Z,6.65
2023-05-05T14:04:05.828Z,5.15
2023-05-05T14:06:34.115Z,5.82
2023-05-05T14:09:02.116Z,6.63
2023-05-05T14:11:31.568Z,5.72
2023-05-05T14:13:59.661Z,8.07
2023-05-05T14:16:27.579Z,6.88
2023-05-05T14:18:59.887Z,6.05
2023-05-05T14:21:27.767Z,5.57
2023-05-05T14:23:58.510Z,5.72
2023-05-05T14:26:27.432Z,4.53
2023-05-05T14:28:55.281Z,5.97
2023-05-05T14:31:23.163Z,4.90
2023-05-05T14:33:51.064Z,4.90
2023-05-05T14:36:20.289Z,4.60
2023-05-05T14:38:48.202Z,4.95
2023-05-05T14:41:16.111Z,5.35
2023-05-05T14:43:43.971Z,5.65
2023-05-05T14:46:11.987Z,4.60
2023-05-05T14:48:39.916Z,5.10
2023-05-05T14:51:07.829Z,5.32
2023-05-05T14:53:37.185Z,4.68
2023-05-05T14:56:05.246Z,4.80
2023-05-05T14:58:33.090Z,4.68
2023-05-05T15:01:01.382Z,4.80
2023-05-05T15:03:29.381Z,5.05
2023-05-05T15:05:57.358Z,4.93
2023-05-05T15:08:25.364Z,4.55
2023-05-05T15:10:54.678Z,5.13
2023-05-05T15:13:22.624Z,4.57
2023-05-05T15:15:51.358Z,4.43
2023-05-05T15:18:20.098Z,3.92
2023-05-05T15:20:47.950Z,4.20
2023-05-05T15:23:16.187Z,4.88
2023-05-05T15:25:44.150Z,3.65
2023-05-05T15:28:14.578Z,4.05
2023-05-05T15:30:42.780Z,3.75
2023-05-05T15:33:10.722Z,2.88
2023-05-05T15:35:38.749Z,2.17
2023-05-05T15:38:06.673Z,3.60
2023-05-05T15:40:34.723Z,2.85
2023-05-05T15:43:02.729Z,3.45
2023-05-05T15:45:31.961Z,4.78
2023-05-05T15:47:59.993Z,4.90
2023-05-05T15:50:27.901Z,7.20
2023-05-05T15:52:56.946Z,7.38
2023-05-05T15:55:25.182Z,9.20
2023-05-05T15:57:53.107Z,8.02
2023-05-05T16:00:21.763Z,7.85
2023-05-05T16:02:51.181Z,7.03
2023-05-05T16:05:20.753Z,6.87
2023-05-05T16:07:50.613Z,7.10
2023-05-05T16:10:19.459Z,7.00
2023-05-05T16:12:47.594Z,7.20
2023-05-05T16:15:15.447Z,8.75
2023-05-05T16:17:43.298Z,9.65
2023-05-05T16:20:13.516Z,10.33
2023-05-05T16:22:41.365Z,10.90
2023-05-05T16:25:10.280Z,9.90
2023-05-05T16:27:38.391Z,8.82
2023-05-05T16:30:07.258Z,9.10
2023-05-05T16:32:35.124Z,10.60
2023-05-05T16:35:03.058Z,8.73
2023-05-05T16:37:32.280Z,10.10
2023-05-05T16:40:01.341Z,15.27
2023-05-05T16:42:29.192Z,14.90
2023-05-05T16:44:57.027Z,12.87
2023-05-05T16:47:25.376Z,11.73
2023-05-05T16:49:53.396Z,11.35
2023-05-05T16:52:21.390Z,9.93
2023-05-05T16:54:55.550Z,11.20
2023-05-05T16:57:23.714Z,9.43
2023-05-05T16:59:51.433Z,8.93
2023-05-05T17:02:19.435Z,8.93
2023-05-05T17:04:47.504Z,7.63
2023-05-05T17:07:15.380Z,7.27
2023-05-05T17:09:43.221Z,7.37
2023-05-05T17:12:12.442Z,8.50
2023-05-05T17:14:40.374Z,7.80
2023-05-05T17:17:09.401Z,7.47
2023-05-05T17:19:37.337Z,7.17
2023-05-05T17:22:05.255Z,9.00
2023-05-05T17:24:33.120Z,7.50
2023-05-05T17:27:01.061Z,8.00
2023-05-05T17:29:30.368Z,7.47
2023-05-05T17:31:58.403Z,7.87
2023-05-05T17:34:26.303Z,7.60
2023-05-05T17:36:54.152Z,7.60
2023-05-05T17:39:21.983Z,7.50
2023-05-05T17:41:49.851Z,7.77
2023-05-05T17:44:17.785Z,8.33
2023-05-05T17:46:46.990Z,8.07
2023-05-05T17:49:14.867Z,7.90
2023-05-05T17:51:42.745Z,7.10
2023-05-05T17:54:10.577Z,8.30
2023-05-05T17:56:38.483Z,7.00
2023-05-05T17:59:06.350Z,7.23
2023-05-05T18:01:34.321Z,7.73
2023-05-05T18:04:03.588Z,8.47
2023-05-05T18:06:31.703Z,9.53
2023-05-05T18:08:59.641Z,9.37
2023-05-05T18:11:28.895Z,9.80
2023-05-05T18:13:56.838Z,9.60
2023-05-05T18:16:24.778Z,10.23
2023-05-05T18:18:52.829Z,11.83
2023-05-05T18:21:22.536Z,11.00
2023-05-05T18:23:50.831Z,11.77
2023-05-05T18:26:18.686Z,11.20
2023-05-05T18:28:46.595Z,11.93
2023-05-05T18:31:14.518Z,11.13
2023-05-05T18:33:42.509Z,12.43
2023-05-05T18:36:10.365Z,12.03
2023-05-05T18:38:39.627Z,11.60
2023-05-05T18:41:07.734Z,11.47
2023-05-05T18:43:35.604Z,12.40
2023-05-05T18:46:03.488Z,12.27
2023-05-05T18:48:31.672Z,12.30
2023-05-05T18:51:02.561Z,12.73
2023-05-05T18:53:30.948Z,12.83
2023-05-05T18:56:00.265Z,11.90
2023-05-05T18:58:28.408Z,13.47
2023-05-05T19:00:56.372Z,12.93
2023-05-05T19:03:24.273Z,14.33
2023-05-05T19:05:52.209Z,13.70
2023-05-05T19:08:20.086Z,14.13
2023-05-05T19:10:47.954Z,15.03
2023-05-05T19:13:17.279Z,14.80
2023-05-05T19:15:45.294Z,13.90
2023-05-05T19:18:13.195Z,15.17
2023-05-05T19:20:42.882Z,15.38
2023-05-05T19:23:11.204Z,15.07
2023-05-05T19:25:39.869Z,16.07
2023-05-05T19:28:07.718Z,16.97
2023-05-05T19:30:37.221Z,16.77
2023-05-05T19:33:05.313Z,17.00
2023-05-05T19:35:33.201Z,16.37
2023-05-05T19:38:01.089Z,17.43
2023-05-05T19:40:29.013Z,16.83
2023-05-05T19:42:57.119Z,16.30
2023-05-05T19:45:24.976Z,15.57
2023-05-05T19:47:54.270Z,16.40
2023-05-05T19:50:22.441Z,15.90
2023-05-05T19:52:50.331Z,16.60
2023-05-05T19:55:19.562Z,16.90
2023-05-05T19:57:47.435Z,15.80
2023-05-05T20:00:15.716Z,16.47
2023-05-05T20:02:45.327Z,15.93
2023-05-05T20:05:16.390Z,15.17
2023-05-05T20:07:44.623Z,15.07
2023-05-05T20:10:14.270Z,15.03
2023-05-05T20:12:48.277Z,14.60
2023-05-05T20:15:18.713Z,12.90
2023-05-05T20:17:47.801Z,13.50
2023-05-05T20:20:20.082Z,12.87
2023-05-05T20:22:49.314Z,14.43
2023-05-05T20:25:17.539Z,14.40
2023-05-05T20:27:45.880Z,13.73
2023-05-05T20:30:14.482Z,15.00
2023-05-05T20:32:42.530Z,15.23
2023-05-05T20:35:12.807Z,13.90
2023-05-05T20:37:42.383Z,12.67
2023-05-05T20:40:11.519Z,12.53
2023-05-05T20:42:39.680Z,12.70
2023-05-05T20:45:10.632Z,13.47
2023-05-05T20:47:38.631Z,12.97
2023-05-05T20:50:08.071Z,12.57
2023-05-05T20:52:36.204Z,11.50
2023-05-05T20:55:06.298Z,10.77
2023-05-05T20:57:34.223Z,10.90
2023-05-05T21:00:02.134Z,11.53
2023-05-05T21:02:31.653Z,15.73
2023-05-05T21:05:02.898Z,14.00
2023-05-05T21:07:31.372Z,15.87
2023-05-05T21:09:59.440Z,11.73
2023-05-05T21:12:29.975Z,11.20
2023-05-05T21:14:58.887Z,10.70
2023-05-05T21:17:27.074Z,10.30
2023-05-05T21:19:55.234Z,9.70
2023-05-05T21:22:23.123Z,9.93
2023-05-05T21:24:51.080Z,10.33
2023-05-05T21:27:19.426Z,11.33
2023-05-05T21:29:51.567Z,10.10
2023-05-05T21:32:19.446Z,9.83
2023-05-05T21:34:47.416Z,10.23
2023-05-05T21:37:15.585Z,10.20
2023-05-05T21:39:43.415Z,11.40
2023-05-05T21:42:11.292Z,10.63
2023-05-05T21:44:39.121Z,11.27
2023-05-05T21:47:08.578Z,12.17
2023-05-05T21:49:36.395Z,12.00
2023-05-05T21:52:04.336Z,12.60
2023-05-05T21:54:32.161Z,11.37
2023-05-05T21:57:00.218Z,11.63
2023-05-05T21:59:28.099Z,11.93
2023-05-05T22:01:55.972Z,12.70
2023-05-05T22:04:25.275Z,13.07
2023-05-05T22:06:53.361Z,12.53
2023-05-05T22:09:21.350Z,13.47
2023-05-05T22:11:49.354Z,12.00
2023-05-05T22:14:17.215Z,12.67
2023-05-05T22:16:45.347Z,11.97
2023-05-05T22:19:13.284Z,12.67
2023-05-05T22:21:42.543Z,11.80
2023-05-05T22:24:10.396Z,12.20
2023-05-05T22:26:39.834Z,12.73
2023-05-05T22:29:07.705Z,10.83
2023-05-05T22:31:35.786Z,12.03
2023-05-05T22:34:03.832Z,12.50
2023-05-05T22:36:32.352Z,12.40
2023-05-05T22:39:01.623Z,13.17
2023-05-05T22:41:29.474Z,13.10
2023-05-05T22:43:57.495Z,13.00
2023-05-05T22:46:25.508Z,13.43
2023-05-05T22:48:54.187Z,13.33
2023-05-05T22:51:22.295Z,13.20
2023-05-05T22:53:50.220Z,13.80
2023-05-05T22:56:19.465Z,12.47
2023-05-05T22:58:47.593Z,12.60
2023-05-05T23:01:15.640Z,12.63
2023-05-05T23:03:43.524Z,12.83
2023-05-05T23:06:11.387Z,13.00
2023-05-05T23:08:39.219Z,13.63
2023-05-05T23:11:07.099Z,11.57
2023-05-05T23:13:36.331Z,12.20
2023-05-05T23:16:04.253Z,11.80
2023-05-05T23:18:32.114Z,12.40
2023-05-05T23:20:59.972Z,12.50
2023-05-05T23:23:27.966Z,11.30
2023-05-05T23:25:56.112Z,11.37
2023-05-05T23:28:24.020Z,11.50
2023-05-05T23:30:53.270Z,11.37
2023-05-05T23:33:21.173Z,11.73
2023-05-05T23:35:49.106Z,11.17
2023-05-05T23:38:17.255Z,11.43
2023-05-05T23:40:45.098Z,10.93
2023-05-05T23:43:13.074Z,10.00
2023-05-05T23:45:41.592Z,10.43
2023-05-05T23:48:10.970Z,10.03
2023-05-05T23:50:38.884Z,10.27
2023-05-05T23:53:06.734Z,9.77
2023-05-05T23:55:34.589Z,11.23
2023-05-05T23:58:02.577Z,10.60
